Time;durP1;ratioP1;P1;durP2;ratioP2;P2;SDS_P1;SDS_P2;PMS_P1;PMS_P2;Temp;Humidity;BMP_temperature;BMP_pressure;BME280_temperature;BME280_humidity;BME280_pressure;Samples;Min_cycle;Max_cycle;Signal;HPM_P1;HPM_P2
2022/03/07 00:00:33;;;;;;;100.60;54.10;;;1.00;99.90;;;;;;5075239;28;20107;-54
2022/03/07 00:02:59;;;;;;;102.20;53.47;;;1.10;99.90;;;;;;5075097;28;20041;-54
2022/03/07 00:05:25;;;;;;;96.30;52.22;;;1.20;99.90;;;;;;5075225;28;20032;-54
2022/03/07 00:07:51;;;;;;;107.00;55.33;;;1.20;99.90;;;;;;5074851;28;20035;-54
2022/03/07 00:10:17;;;;;;;103.32;52.60;;;1.10;99.90;;;;;;5075030;28;20024;-54
2022/03/07 00:12:43;;;;;;;102.88;52.40;;;1.20;99.90;;;;;;5074975;28;20043;-54
2022/03/07 00:15:09;;;;;;;112.47;55.05;;;1.10;99.90;;;;;;5074925;28;20037;-54
2022/03/07 00:17:35;;;;;;;118.43;57.03;;;1.10;99.90;;;;;;5074948;28;20059;-54
2022/03/07 00:20:01;;;;;;;151.30;68.00;;;1.20;99.90;;;;;;5074877;28;20064;-54
2022/03/07 00:22:27;;;;;;;245.52;98.95;;;1.10;99.90;;;;;;5074749;28;20428;-54
2022/03/07 00:24:53;;;;;;;254.73;101.68;;;1.10;99.90;;;;;;5074610;28;20040;-54
2022/03/07 00:27:19;;;;;;;209.38;88.85;;;1.20;99.90;;;;;;5074849;28;20078;-54
2022/03/07 00:29:45;;;;;;;142.65;62.78;;;1.20;99.90;;;;;;5056730;28;20444;-54
2022/03/07 00:32:11;;;;;;;135.07;65.05;;;1.10;99.90;;;;;;5056677;28;20052;-54
2022/03/07 00:34:37;;;;;;;155.50;74.72;;;1.10;99.90;;;;;;5074715;28;20027;-54
2022/03/07 00:37:03;;;;;;;131.50;66.10;;;1.10;99.90;;;;;;5056746;28;20537;-54
2022/03/07 00:39:29;;;;;;;136.30;65.90;;;1.10;99.90;;;;;;5056638;28;20024;-54
2022/03/07 00:41:55;;;;;;;129.55;62.33;;;1.10;99.90;;;;;;5056634;28;20050;-54
2022/03/07 00:44:23;;;;;;;137.95;67.63;;;1.10;99.90;;;;;;5073833;28;20151;-54
2022/03/07 00:46:49;;;;;;;145.43;69.70;;;1.10;99.90;;;;;;5074516;28;20111;-54
2022/03/07 00:49:15;;;;;;;129.68;65.55;;;1.20;99.90;;;;;;5074661;28;20036;-54
2022/03/07 00:51:41;;;;;;;139.60;66.35;;;1.10;99.90;;;;;;5074942;28;20032;-54
2022/03/07 00:54:07;;;;;;;133.70;67.65;;;1.20;99.90;;;;;;5056196;28;20445;-54
2022/03/07 00:56:33;;;;;;;127.35;63.22;;;1.20;99.90;;;;;;5074529;28;20032;-54
2022/03/07 00:58:59;;;;;;;123.85;63.35;;;1.10;99.90;;;;;;5074658;28;20119;-54
2022/03/07 01:01:26;;;;;;;129.60;66.32;;;1.10;99.90;;;;;;5074140;28;20060;-54
2022/03/07 01:03:52;;;;;;;136.80;68.20;;;1.10;99.90;;;;;;5074156;28;20028;-54
2022/03/07 01:06:18;;;;;;;137.65;69.05;;;1.20;99.90;;;;;;5056448;28;20532;-54
2022/03/07 01:08:44;;;;;;;119.75;60.47;;;1.10;99.90;;;;;;5074344;28;20679;-54
2022/03/07 01:11:10;;;;;;;120.60;59.97;;;1.10;99.90;;;;;;5074270;28;20164;-54
2022/03/07 01:13:38;;;;;;;120.28;58.60;;;1.10;99.90;;;;;;5056132;28;20484;-54
2022/03/07 01:16:04;;;;;;;116.53;58.03;;;1.10;99.90;;;;;;5056360;28;20028;-54
2022/03/07 01:18:30;;;;;;;114.30;57.28;;;1.10;99.90;;;;;;5074092;28;20024;-54
2022/03/07 01:20:56;;;;;;;120.10;57.58;;;1.10;99.90;;;;;;5074287;28;20036;-54
2022/03/07 01:23:23;;;;;;;117.03;57.03;;;1.20;99.90;;;;;;5074232;28;20107;-54
2022/03/07 01:25:49;;;;;;;114.72;56.65;;;1.20;99.90;;;;;;5074130;28;20192;-54
2022/03/07 01:28:14;;;;;;;116.95;57.28;;;1.20;99.90;;;;;;5056074;28;20089;-54
2022/03/07 01:30:41;;;;;;;115.22;58.17;;;1.20;99.90;;;;;;5056112;28;20117;-54
2022/03/07 01:33:08;;;;;;;115.80;56.45;;;1.10;99.90;;;;;;5073874;28;20430;-54
2022/03/07 01:35:35;;;;;;;118.80;58.83;;;1.10;99.90;;;;;;5074244;28;20029;-54
2022/03/07 01:38:01;;;;;;;116.50;56.40;;;1.10;99.90;;;;;;5056354;28;20410;-54
2022/03/07 01:40:27;;;;;;;110.65;57.08;;;1.10;99.90;;;;;;5073918;28;20537;-54
2022/03/07 01:42:55;;;;;;;116.22;57.28;;;1.10;99.90;;;;;;5073825;28;20039;-54
2022/03/07 01:45:21;;;;;;;116.65;57.05;;;1.10;99.90;;;;;;5055942;28;20085;-54
2022/03/07 01:47:48;;;;;;;115.32;58.20;;;1.10;99.90;;;;;;5056114;28;20094;-54
2022/03/07 01:50:16;;;;;;;107.68;54.80;;;1.10;99.90;;;;;;5073817;28;20028;-54
2022/03/07 01:52:45;;;;;;;125.47;59.03;;;1.10;99.90;;;;;;5056040;28;20033;-54
2022/03/07 01:55:13;;;;;;;121.35;57.58;;;1.10;99.90;;;;;;5056128;28;20025;-54
2022/03/07 01:57:49;;;;;;;128.60;61.20;;;1.10;99.90;;;;;;5059589;28;20029;-54
2022/03/07 02:00:18;;;;;;;116.95;56.47;;;1.10;99.90;;;;;;5077338;28;20067;-54
2022/03/07 02:02:45;;;;;;;109.70;52.13;;;1.10;99.90;;;;;;5059797;28;20449;-54
2022/03/07 02:05:16;;;;;;;106.78;53.38;;;1.10;99.90;;;;;;5059524;28;20398;-54
2022/03/07 02:07:47;;;;;;;98.18;50.67;;;1.20;99.90;;;;;;5059318;28;20401;-54
2022/03/07 02:10:14;;;;;;;107.60;54.60;;;1.20;99.90;;;;;;5059461;28;20407;-54
2022/03/07 02:12:42;;;;;;;101.80;51.70;;;1.20;99.90;;;;;;5059262;28;20507;-54
2022/03/07 02:15:09;;;;;;;99.60;50.70;;;1.20;99.90;;;;;;5059298;28;20109;-54
2022/03/07 02:17:37;;;;;;;84.90;44.35;;;1.20;99.90;;;;;;5059281;28;20128;-54
2022/03/07 02:20:04;;;;;;;73.82;38.42;;;1.10;99.90;;;;;;5059240;28;20035;-54
2022/03/07 02:22:30;;;;;;;80.97;41.20;;;1.00;99.90;;;;;;5077185;28;20036;-54
2022/03/07 02:24:57;;;;;;;80.13;40.33;;;1.10;99.90;;;;;;5058939;28;20067;-54
2022/03/07 02:27:23;;;;;;;78.85;41.08;;;1.10;99.90;;;;;;5077048;28;20032;-54
2022/03/07 02:29:50;;;;;;;88.70;43.78;;;1.00;99.90;;;;;;5059021;28;20025;-54
2022/03/07 02:32:22;;;;;;;;;;;1.10;99.90;;;;;;5059461;28;20382;-54
2022/03/07 02:34:48;;;;;;;87.97;45.40;;;1.10;99.90;;;;;;5059073;28;20335;-54
2022/03/07 02:37:16;;;;;;;90.78;45.10;;;1.10;99.90;;;;;;5059021;28;20035;-54
2022/03/07 02:39:47;;;;;;;83.63;44.17;;;1.10;99.90;;;;;;5076788;28;20058;-54
2022/03/07 02:42:12;;;;;;;95.40;47.45;;;1.10;99.90;;;;;;5058957;28;20040;-54
2022/03/07 02:44:40;;;;;;;87.60;46.03;;;1.10;99.90;;;;;;5075435;28;20075;-54
2022/03/07 02:47:07;;;;;;;94.68;47.83;;;1.10;99.90;;;;;;5058643;28;20032;-54
2022/03/07 02:49:33;;;;;;;87.32;45.80;;;1.20;99.90;;;;;;5058875;28;20036;-54
2022/03/07 02:51:59;;;;;;;91.85;46.85;;;1.10;99.90;;;;;;5058692;28;20043;-54
2022/03/07 02:54:25;;;;;;;89.15;47.33;;;1.20;99.90;;;;;;5076440;28;20024;-54
2022/03/07 02:56:51;;;;;;;82.75;42.67;;;1.10;99.90;;;;;;5076663;28;20481;-54
2022/03/07 02:59:17;;;;;;;94.57;48.50;;;1.10;99.90;;;;;;5076569;28;20032;-54
2022/03/07 03:01:44;;;;;;;91.63;46.72;;;1.10;99.90;;;;;;5076721;28;20032;-54
2022/03/07 03:04:11;;;;;;;93.43;45.90;;;1.10;99.90;;;;;;5076611;28;20033;-54
2022/03/07 03:06:37;;;;;;;89.28;48.22;;;1.20;99.90;;;;;;5075864;28;20103;-54
2022/03/07 03:09:03;;;;;;;96.55;50.67;;;1.20;99.90;;;;;;5076448;28;20096;-54
2022/03/07 03:11:29;;;;;;;93.93;49.30;;;1.20;99.90;;;;;;5076470;28;20021;-54
2022/03/07 03:13:55;;;;;;;93.00;50.00;;;1.20;99.90;;;;;;5076161;28;20104;-54
2022/03/07 03:16:21;;;;;;;101.20;52.78;;;1.20;99.90;;;;;;5076051;28;20114;-54
2022/03/07 03:18:47;;;;;;;97.95;50.83;;;1.10;99.90;;;;;;5076147;28;20016;-54
2022/03/07 03:21:13;;;;;;;100.60;51.38;;;1.10;99.90;;;;;;5076118;28;20028;-54
2022/03/07 03:23:39;;;;;;;96.20;49.40;;;1.10;99.90;;;;;;5075954;28;20031;-54
2022/03/07 03:26:05;;;;;;;95.15;50.00;;;1.10;99.90;;;;;;5075941;28;20128;-54
2022/03/07 03:28:31;;;;;;;98.90;52.50;;;1.10;99.90;;;;;;5076046;28;20111;-54
2022/03/07 03:30:57;;;;;;;95.60;50.53;;;1.00;99.90;;;;;;5075808;28;20024;-54
2022/03/07 03:33:23;;;;;;;87.80;47.65;;;1.10;99.90;;;;;;5075872;28;20474;-54
2022/03/07 03:35:49;;;;;;;86.43;44.97;;;1.00;99.90;;;;;;5075710;28;20470;-54
2022/03/07 03:38:15;;;;;;;85.30;45.58;;;1.00;99.90;;;;;;5075503;28;20398;-54
2022/03/07 03:40:41;;;;;;;87.65;44.55;;;1.10;99.90;;;;;;5075611;28;20059;-54
2022/03/07 03:43:07;;;;;;;85.90;44.17;;;1.10;99.90;;;;;;5075542;28;20036;-54
2022/03/07 03:45:33;;;;;;;90.90;45.55;;;1.10;99.90;;;;;;5075553;28;20112;-54
2022/03/07 03:48:00;;;;;;;91.13;46.75;;;1.00;99.90;;;;;;5075552;28;20111;-54
2022/03/07 03:50:26;;;;;;;96.22;46.88;;;1.00;99.90;;;;;;5075342;28;20024;-54
2022/03/07 03:52:52;;;;;;;95.38;46.70;;;1.00;99.90;;;;;;5075530;28;20028;-54
2022/03/07 03:55:18;;;;;;;100.95;48.35;;;1.00;99.90;;;;;;5075289;28;20040;-54
2022/03/07 03:57:45;;;;;;;92.00;45.55;;;1.00;99.90;;;;;;5075219;28;20111;-54
2022/03/07 04:00:14;;;;;;;84.93;44.28;;;1.00;99.90;;;;;;5075191;28;20102;-54
2022/03/07 04:02:42;;;;;;;89.88;45.95;;;1.00;99.90;;;;;;5075138;28;20032;-54
2022/03/07 04:05:10;;;;;;;84.32;45.83;;;1.00;99.90;;;;;;5075131;28;20070;-54
2022/03/07 04:07:37;;;;;;;82.88;42.33;;;1.00;99.90;;;;;;5075182;28;20113;-54
2022/03/07 04:10:03;;;;;;;81.93;42.15;;;1.00;99.90;;;;;;5075021;28;20493;-54
2022/03/07 04:12:29;;;;;;;88.35;45.40;;;1.00;99.90;;;;;;5075075;28;20025;-54
2022/03/07 04:14:55;;;;;;;80.25;40.38;;;0.90;99.90;;;;;;5074989;28;20085;-54
2022/03/07 04:17:21;;;;;;;77.85;40.28;;;1.00;99.90;;;;;;5074799;28;20040;-54
2022/03/07 04:19:47;;;;;;;76.28;40.83;;;1.00;99.90;;;;;;5074239;28;20034;-54
2022/03/07 04:22:13;;;;;;;77.75;39.08;;;1.00;99.90;;;;;;5074897;28;20068;-54
2022/03/07 04:24:39;;;;;;;73.50;39.97;;;1.00;99.90;;;;;;5074764;28;20053;-54
2022/03/07 04:27:05;;;;;;;80.07;39.15;;;1.00;99.90;;;;;;5074872;28;20456;-54
2022/03/07 04:29:31;;;;;;;76.65;38.67;;;1.10;99.90;;;;;;5074827;28;20107;-54
2022/03/07 04:31:57;;;;;;;78.55;37.33;;;1.10;99.90;;;;;;5074689;28;20494;-54
2022/03/07 04:34:24;;;;;;;76.07;38.53;;;1.10;99.90;;;;;;5074506;28;20379;-54
2022/03/07 04:36:50;;;;;;;76.38;40.00;;;1.10;99.90;;;;;;5074726;28;20422;-54
2022/03/07 04:39:16;;;;;;;70.95;37.65;;;1.10;99.90;;;;;;5074619;28;20048;-54
2022/03/07 04:41:44;;;;;;;78.40;39.17;;;1.10;99.90;;;;;;5074587;28;20032;-54
2022/03/07 04:44:11;;;;;;;90.60;42.20;;;1.20;99.90;;;;;;5074512;28;20067;-54
2022/03/07 04:46:37;;;;;;;82.60;41.08;;;1.30;99.90;;;;;;5074464;28;20035;-54
2022/03/07 04:49:03;;;;;;;85.68;42.63;;;1.20;99.90;;;;;;5074577;28;20029;-54
2022/03/07 04:51:29;;;;;;;82.60;41.03;;;1.20;99.90;;;;;;5074610;28;20104;-54
2022/03/07 04:53:55;;;;;;;85.68;43.50;;;1.30;99.90;;;;;;5074284;28;20500;-54
2022/03/07 04:56:21;;;;;;;86.05;44.50;;;1.30;99.90;;;;;;5074405;28;20021;-54
2022/03/07 04:58:47;;;;;;;99.25;47.25;;;1.30;99.90;;;;;;5074358;28;20040;-54
2022/03/07 05:01:16;;;;;;;119.05;52.10;;;1.20;99.90;;;;;;5074535;28;20029;-54
2022/03/07 05:03:42;;;;;;;117.32;52.10;;;1.20;99.90;;;;;;5074255;28;20036;-54
2022/03/07 05:06:11;;;;;;;120.70;52.72;;;1.30;99.90;;;;;;5074288;28;20021;-54
2022/03/07 05:08:39;;;;;;;95.75;48.38;;;1.20;99.90;;;;;;5074546;28;20159;-54
2022/03/07 05:11:06;;;;;;;95.47;46.75;;;1.20;99.90;;;;;;5074187;28;20058;-54
2022/03/07 05:13:32;;;;;;;109.63;50.25;;;1.30;99.90;;;;;;5074311;28;20103;-54
2022/03/07 05:15:58;;;;;;;91.75;45.78;;;1.30;99.90;;;;;;5073951;28;20469;-54
2022/03/07 05:18:24;;;;;;;106.03;48.17;;;1.30;99.90;;;;;;5074219;28;20089;-54
2022/03/07 05:20:50;;;;;;;103.57;48.25;;;1.20;99.90;;;;;;5074225;28;20024;-54
2022/03/07 05:23:16;;;;;;;109.53;49.60;;;1.20;99.90;;;;;;5074193;28;20037;-54
2022/03/07 05:25:42;;;;;;;115.20;49.28;;;1.30;99.90;;;;;;5073882;28;20490;-54
2022/03/07 05:28:08;;;;;;;103.32;50.13;;;1.20;99.90;;;;;;5074156;28;20526;-54
2022/03/07 05:30:34;;;;;;;110.72;52.90;;;1.20;99.90;;;;;;5076689;28;20550;-54
2022/03/07 05:33:00;;;;;;;118.13;55.03;;;1.30;99.90;;;;;;5078057;28;20032;-54
2022/03/07 05:35:26;;;;;;;117.00;53.50;;;1.30;99.90;;;;;;5077935;28;20036;-54
2022/03/07 05:37:52;;;;;;;106.90;53.55;;;1.30;99.90;;;;;;5078185;28;20404;-54
2022/03/07 05:40:18;;;;;;;126.40;58.60;;;1.30;99.90;;;;;;5077954;28;20521;-54
2022/03/07 05:42:44;;;;;;;136.15;64.63;;;1.40;99.90;;;;;;5077836;28;20037;-54
2022/03/07 05:45:12;;;;;;;118.72;55.58;;;1.40;99.90;;;;;;5077628;28;20060;-54
2022/03/07 05:47:38;;;;;;;129.60;55.63;;;1.30;99.90;;;;;;5077518;28;20020;-54
2022/03/07 05:50:04;;;;;;;124.13;55.70;;;1.30;99.90;;;;;;5077920;28;20024;-54
2022/03/07 05:52:30;;;;;;;105.82;51.20;;;1.30;99.90;;;;;;5077881;28;20111;-54
2022/03/07 05:54:56;;;;;;;101.85;50.78;;;1.30;99.90;;;;;;5077844;28;20067;-54
2022/03/07 05:57:22;;;;;;;111.00;53.60;;;1.40;99.90;;;;;;5077718;28;20489;-54
2022/03/07 05:59:48;;;;;;;118.15;59.47;;;1.40;99.90;;;;;;5077497;28;20032;-54
2022/03/07 06:02:14;;;;;;;126.28;61.47;;;1.40;99.90;;;;;;5077531;28;20039;-54
2022/03/07 06:04:41;;;;;;;126.45;58.17;;;1.40;99.90;;;;;;5077376;28;20068;-54
2022/03/07 06:07:08;;;;;;;120.63;57.35;;;1.40;99.90;;;;;;5077266;28;20026;-54
2022/03/07 06:09:34;;;;;;;127.53;60.08;;;1.50;99.90;;;;;;5077378;28;20081;-54
2022/03/07 06:12:00;;;;;;;145.18;67.15;;;1.50;99.90;;;;;;5077130;28;20028;-54
2022/03/07 06:14:26;;;;;;;153.50;68.45;;;1.50;99.90;;;;;;5077125;28;20032;-54
2022/03/07 06:16:52;;;;;;;151.93;71.05;;;1.50;99.90;;;;;;5062645;28;20182;-54
2022/03/07 06:19:18;;;;;;;154.27;71.20;;;1.50;99.90;;;;;;5068251;28;20067;-54
2022/03/07 06:21:44;;;;;;;156.65;69.95;;;1.50;99.90;;;;;;5061358;28;20033;-54
2022/03/07 06:24:09;;;;;;;153.88;68.50;;;1.40;99.90;;;;;;5066806;28;20130;-54
2022/03/07 06:26:36;;;;;;;154.10;66.75;;;1.50;99.90;;;;;;5063852;28;20052;-54
2022/03/07 06:29:03;;;;;;;151.35;63.95;;;1.50;99.90;;;;;;5077025;28;20016;-54
2022/03/07 06:31:29;;;;;;;142.32;62.10;;;1.50;99.90;;;;;;5071362;28;20101;-54
2022/03/07 06:33:55;;;;;;;145.77;66.10;;;1.50;99.90;;;;;;5067083;28;20390;-54
2022/03/07 06:36:27;;;;;;;184.43;74.85;;;1.50;99.90;;;;;;5048703;28;20040;-54
2022/03/07 06:38:53;;;;;;;181.80;78.78;;;1.50;99.90;;;;;;5056504;28;20041;-54
2022/03/07 06:41:19;;;;;;;182.65;74.57;;;1.50;99.90;;;;;;5075401;28;20025;-55
2022/03/07 06:43:45;;;;;;;176.77;70.22;;;1.50;99.90;;;;;;5056895;28;20075;-54
2022/03/07 06:46:11;;;;;;;173.98;69.25;;;1.60;99.90;;;;;;5066709;28;20071;-54
2022/03/07 06:48:37;;;;;;;187.77;73.57;;;1.60;99.90;;;;;;5060704;28;20478;-54
2022/03/07 06:51:09;;;;;;;171.48;71.03;;;1.60;99.90;;;;;;5062234;28;20032;-54
2022/03/07 06:53:35;;;;;;;165.05;69.00;;;1.60;99.90;;;;;;5078600;28;20441;-56
2022/03/07 06:56:02;;;;;;;136.63;64.00;;;1.70;99.90;;;;;;5065976;28;20033;-54
2022/03/07 06:58:32;;;;;;;148.88;65.20;;;1.60;99.90;;;;;;5071679;28;20636;-55
2022/03/07 07:00:58;;;;;;;125.85;57.70;;;1.70;99.90;;;;;;5074708;28;20028;-55
2022/03/07 07:03:59;;;;;;;105.90;49.75;;;1.70;99.90;;;;;;5069645;28;20036;-54
2022/03/07 07:06:25;;;;;;;99.47;48.55;;;1.70;99.90;;;;;;5066588;28;20128;-54
2022/03/07 07:08:51;;;;;;;100.57;46.63;;;1.60;99.90;;;;;;5061692;28;20115;-54
2022/03/07 07:11:17;;;;;;;96.82;50.67;;;1.70;99.90;;;;;;5075318;28;20027;-55
2022/03/07 07:13:44;;;;;;;103.80;50.92;;;1.80;99.90;;;;;;5072040;28;20032;-55
2022/03/07 07:28:40;;;;;;;120.93;53.80;;;2.00;99.90;;;;;;5068950;28;20112;-55
2022/03/07 07:31:06;;;;;;;121.57;53.93;;;2.10;99.90;;;;;;5060470;28;20025;-56
2022/03/07 07:33:32;;;;;;;108.53;46.95;;;2.10;99.90;;;;;;5061743;28;20029;-55
2022/03/07 07:35:58;;;;;;;117.18;50.55;;;2.10;99.90;;;;;;5070425;28;20017;-55
2022/03/07 07:38:24;;;;;;;82.85;42.25;;;2.10;99.90;;;;;;5065982;28;20082;-55
2022/03/07 07:48:40;;;;;;;63.40;34.22;;;2.10;99.90;;;;;;5024692;28;20070;-55
2022/03/07 07:51:07;;;;;;;72.93;36.78;;;2.10;99.90;;;;;;5058401;28;20024;-55
2022/03/07 07:53:33;;;;;;;60.28;34.90;;;2.20;99.90;;;;;;5064973;28;20021;-56
2022/03/07 07:56:01;;;;;;;66.00;34.75;;;2.20;99.90;;;;;;5063397;28;20036;-56
2022/03/07 07:58:28;;;;;;;65.22;34.80;;;2.30;99.90;;;;;;5067597;28;20629;-56
2022/03/07 08:00:53;;;;;;;56.28;30.38;;;2.40;99.90;;;;;;5062830;28;20106;-56
2022/03/07 08:03:20;;;;;;;53.88;32.05;;;2.40;99.90;;;;;;5066126;28;20033;-55
2022/03/07 08:05:48;;;;;;;67.25;33.75;;;2.40;99.90;;;;;;5066985;28;20064;-56
2022/03/07 08:15:46;;;;;;;78.40;35.70;;;2.90;99.90;;;;;;5072091;28;20075;-54
2022/03/07 08:18:12;;;;;;;71.20;34.88;;;2.90;99.90;;;;;;5068135;28;20048;-55
2022/03/07 08:20:38;;;;;;;63.13;35.03;;;3.00;99.90;;;;;;5075001;28;20474;-55
2022/03/07 08:23:05;;;;;;;77.32;37.63;;;3.00;99.90;;;;;;5060994;28;20052;-56
2022/03/07 08:25:32;;;;;;;90.70;47.13;;;3.20;99.90;;;;;;5073599;28;20450;-54
2022/03/07 08:27:59;;;;;;;76.85;41.90;;;3.30;99.90;;;;;;5091714;28;20039;-54
2022/03/07 08:30:28;;;;;;;70.60;38.33;;;3.20;99.90;;;;;;5066160;28;20045;-54
2022/03/07 08:32:54;;;;;;;73.45;37.78;;;3.30;99.90;;;;;;5060047;28;20041;-54
2022/03/07 08:35:21;;;;;;;71.30;37.38;;;3.30;99.90;;;;;;5055722;28;20025;-54
2022/03/07 08:37:48;;;;;;;111.75;51.42;;;3.40;99.90;;;;;;5055254;28;20076;-54
2022/03/07 08:40:17;;;;;;;97.22;47.70;;;3.30;99.90;;;;;;5038155;28;20036;-54
2022/03/07 08:42:44;;;;;;;77.00;39.35;;;3.20;99.90;;;;;;5073349;28;20028;-54
2022/03/07 08:45:14;;;;;;;70.60;38.72;;;3.20;99.90;;;;;;5066770;28;20055;-54
2022/03/07 08:47:44;;;;;;;70.60;38.63;;;3.30;99.90;;;;;;5081642;28;20030;-55
2022/03/07 08:50:12;;;;;;;95.47;50.83;;;3.30;99.90;;;;;;5083349;28;20029;-54
2022/03/07 08:52:38;;;;;;;93.68;47.17;;;3.40;99.90;;;;;;5064978;28;20040;-54
2022/03/07 08:55:06;;;;;;;73.13;40.47;;;3.40;99.90;;;;;;5065211;28;20035;-54
2022/03/07 08:57:32;;;;;;;88.03;43.20;;;3.40;99.90;;;;;;5075047;28;20399;-55
2022/03/07 08:59:58;;;;;;;89.70;47.85;;;3.50;99.90;;;;;;5080711;28;20119;-56
2022/03/07 09:02:24;;;;;;;60.17;35.13;;;3.70;99.90;;;;;;5050503;28;20033;-55
2022/03/07 09:04:50;;;;;;;68.15;36.53;;;3.80;99.90;;;;;;5079474;28;20081;-56
2022/03/07 09:07:16;;;;;;;59.42;35.08;;;3.80;99.90;;;;;;5084621;28;20032;-56
2022/03/07 09:09:42;;;;;;;61.40;36.75;;;4.00;99.90;;;;;;5063221;28;20025;-55
2022/03/07 09:12:09;;;;;;;74.20;43.10;;;4.20;99.90;;;;;;5075109;28;20029;-55
2022/03/07 09:14:39;;;;;;;56.58;33.13;;;4.00;99.90;;;;;;5076192;28;20056;-59
2022/03/07 09:17:06;;;;;;;58.90;34.47;;;4.30;99.90;;;;;;5079779;28;20033;-57
2022/03/07 09:19:35;;;;;;;70.05;37.92;;;4.40;99.90;;;;;;5087425;28;20024;-59
2022/03/07 09:22:01;;;;;;;69.05;36.75;;;4.50;99.90;;;;;;5095012;28;20392;-58
2022/03/07 09:24:27;;;;;;;75.82;40.33;;;4.30;99.90;;;;;;5093798;28;20039;-59
2022/03/07 09:26:53;;;;;;;69.00;38.75;;;4.20;99.90;;;;;;5094734;28;20432;-59
2022/03/07 09:29:19;;;;;;;69.38;37.03;;;4.20;99.90;;;;;;5071579;28;20049;-58
2022/03/07 09:31:46;;;;;;;83.50;41.83;;;4.20;99.90;;;;;;5074851;28;20028;-58
2022/03/07 09:34:13;;;;;;;81.75;41.80;;;4.20;99.90;;;;;;5080161;28;20029;-58
2022/03/07 09:36:38;;;;;;;80.53;42.05;;;4.20;99.90;;;;;;5079689;28;20028;-58
2022/03/07 09:39:08;;;;;;;68.28;40.13;;;4.30;99.90;;;;;;5071413;28;20086;-58
2022/03/07 09:41:35;;;;;;;90.63;46.40;;;4.30;99.90;;;;;;5057306;28;20045;-58
2022/03/07 09:44:01;;;;;;;78.80;42.58;;;4.20;99.90;;;;;;5073520;28;20374;-58
2022/03/07 09:46:28;;;;;;;82.82;42.55;;;4.20;99.90;;;;;;5063285;28;20029;-59
2022/03/07 09:48:54;;;;;;;69.50;40.20;;;4.10;99.90;;;;;;5053585;28;20241;-58
2022/03/07 09:51:20;;;;;;;71.85;41.28;;;4.20;99.90;;;;;;5055240;28;20029;-58
2022/03/07 09:53:46;;;;;;;71.70;40.00;;;4.10;99.90;;;;;;5059799;28;20028;-57
2022/03/07 09:56:12;;;;;;;71.53;39.97;;;3.90;99.90;;;;;;5057060;28;20136;-59
2022/03/07 09:58:38;;;;;;;70.82;37.10;;;4.00;99.90;;;;;;5069496;28;20021;-59
2022/03/07 10:01:13;;;;;;;63.50;35.35;;;3.90;99.90;;;;;;5072991;28;20028;-58
2022/03/07 10:03:40;;;;;;;63.92;38.03;;;3.80;99.90;;;;;;5057849;28;20138;-59
2022/03/07 10:06:14;;;;;;;64.85;36.58;;;3.80;99.90;;;;;;5070194;28;20025;-58
2022/03/07 10:08:54;;;;;;;66.32;38.45;;;3.90;99.90;;;;;;5072848;28;20024;-60
2022/03/07 10:11:21;;;;;;;75.85;42.67;;;3.90;99.90;;;;;;5072189;28;20521;-58
2022/03/07 10:13:59;;;;;;;82.10;41.47;;;3.70;99.90;;;;;;5073415;28;20036;-58
2022/03/07 10:16:40;;;;;;;66.78;37.75;;;3.60;99.90;;;;;;5039387;28;20029;-57
2022/03/07 10:19:12;;;;;;;76.57;40.50;;;3.60;99.90;;;;;;5074990;28;20159;-59
2022/03/07 10:21:52;;;;;;;68.85;37.20;;;3.60;99.90;;;;;;5076881;28;20035;-57
2022/03/07 10:24:30;;;;;;;86.35;45.90;;;3.50;99.90;;;;;;5071943;28;20471;-57
2022/03/07 10:26:55;;;;;;;74.30;39.63;;;3.50;99.90;;;;;;5072404;28;20028;-57
2022/03/07 10:29:21;;;;;;;74.68;40.85;;;3.40;99.90;;;;;;5066263;28;20048;-57
2022/03/07 10:31:48;;;;;;;82.40;42.67;;;3.30;99.90;;;;;;5071130;28;20090;-57
2022/03/07 10:34:14;;;;;;;69.90;39.97;;;3.40;99.90;;;;;;5063261;28;20537;-57
2022/03/07 10:36:42;;;;;;;75.50;42.13;;;3.40;99.90;;;;;;5068391;28;20035;-58
2022/03/07 10:39:11;;;;;;;86.80;44.15;;;3.40;99.90;;;;;;5090994;28;20088;-58
2022/03/07 10:41:43;;;;;;;87.60;43.33;;;3.40;99.90;;;;;;5094740;28;20020;-58
2022/03/07 10:44:23;;;;;;;95.57;47.20;;;3.40;99.90;;;;;;5092527;28;20048;-58
2022/03/07 10:46:49;;;;;;;93.37;48.73;;;3.30;99.90;;;;;;5056764;28;20037;-58
2022/03/07 10:49:18;;;;;;;87.70;46.28;;;3.20;99.90;;;;;;5056799;28;20254;-58
2022/03/07 10:51:53;;;;;;;88.15;46.00;;;3.20;99.90;;;;;;5056941;28;20025;-58
2022/03/07 10:54:21;;;;;;;87.82;43.45;;;3.30;99.90;;;;;;5056219;28;20036;-58
2022/03/07 10:56:55;;;;;;;101.32;47.00;;;3.40;99.90;;;;;;5056280;28;20080;-59
2022/03/07 10:59:37;;;;;;;89.00;45.88;;;3.40;99.90;;;;;;5056287;28;20025;-59
2022/03/07 11:02:11;;;;;;;78.10;41.50;;;3.40;99.90;;;;;;5054326;28;20075;-59
2022/03/07 11:04:39;;;;;;;78.75;42.67;;;3.40;99.90;;;;;;5055973;28;20038;-59
2022/03/07 11:07:06;;;;;;;83.72;42.17;;;3.40;99.90;;;;;;5056086;28;20025;-59
2022/03/07 11:09:32;;;;;;;88.75;44.83;;;3.30;99.90;;;;;;5056191;28;20411;-58
2022/03/07 11:11:59;;;;;;;85.45;43.95;;;3.40;99.90;;;;;;5047544;28;20048;-59
2022/03/07 11:14:27;;;;;;;101.72;49.75;;;3.40;99.90;;;;;;5076697;28;20033;-59
2022/03/07 11:16:56;;;;;;;85.15;44.58;;;3.30;99.90;;;;;;5076515;28;20083;-59
2022/03/07 11:19:24;;;;;;;68.28;38.63;;;3.10;99.90;;;;;;5076401;28;20028;-59
2022/03/07 11:21:52;;;;;;;64.28;36.67;;;3.10;99.90;;;;;;5076513;28;20090;-59
2022/03/07 11:24:23;;;;;;;69.68;38.78;;;3.30;99.90;;;;;;5058317;28;20032;-59
2022/03/07 11:26:52;;;;;;;72.35;41.05;;;3.40;99.90;;;;;;5076120;28;20028;-59
2022/03/07 11:29:19;;;;;;;61.10;35.63;;;3.60;99.90;;;;;;5076455;28;20041;-59
2022/03/07 11:31:46;;;;;;;70.30;38.60;;;3.60;99.90;;;;;;5076246;28;20025;-58
2022/03/07 11:34:12;;;;;;;67.15;38.97;;;3.50;99.90;;;;;;5076499;28;20033;-58
2022/03/07 11:36:45;;;;;;;68.50;38.28;;;3.70;99.90;;;;;;5076212;28;20020;-57
2022/03/07 11:39:12;;;;;;;70.95;40.55;;;3.80;99.90;;;;;;5076008;28;20079;-58
2022/03/07 11:41:40;;;;;;;79.35;41.97;;;3.70;99.90;;;;;;5076190;28;20033;-57
2022/03/07 11:44:11;;;;;;;71.25;42.22;;;3.90;99.90;;;;;;5075916;28;20111;-57
2022/03/07 11:46:37;;;;;;;;;;;3.80;99.90;;;;;;5076183;28;20016;-57
2022/03/07 11:49:06;;;;;;;90.38;44.33;;;3.80;99.90;;;;;;5076012;28;19990;-57
2022/03/07 11:51:36;;;;;;;102.28;49.05;;;3.70;99.90;;;;;;5076013;28;20025;-57
2022/03/07 11:54:03;;;;;;;95.15;47.92;;;3.70;99.90;;;;;;5075719;28;20424;-57
2022/03/07 11:56:38;;;;;;;82.45;43.35;;;3.70;99.90;;;;;;5075977;28;20028;-57
2022/03/07 11:59:08;;;;;;;79.82;42.67;;;3.50;99.90;;;;;;5067494;28;20101;-57
2022/03/07 12:01:34;;;;;;;95.13;49.13;;;3.70;99.90;;;;;;5072311;28;20064;-57
2022/03/07 12:04:37;;;;;;;76.68;41.88;;;3.60;99.90;;;;;;5075869;28;20366;-57
2022/03/07 12:07:03;;;;;;;76.47;42.20;;;3.40;99.90;;;;;;5064858;28;20029;-57
2022/03/07 12:09:34;;;;;;;72.88;40.10;;;3.40;99.90;;;;;;5087119;28;20481;-57
2022/03/07 12:12:06;;;;;;;74.28;42.45;;;3.50;99.90;;;;;;5074924;28;20056;-57
2022/03/07 12:14:39;;;;;;;101.22;49.80;;;3.40;99.90;;;;;;5068253;28;20539;-57
2022/03/07 12:17:15;;;;;;;79.43;43.72;;;3.30;99.90;;;;;;5072243;28;20036;-56
2022/03/07 12:19:42;;;;;;;70.68;41.22;;;3.50;99.90;;;;;;5069459;28;20105;-57
2022/03/07 12:22:11;;;;;;;77.32;45.42;;;3.60;99.90;;;;;;5058305;28;20033;-57
2022/03/07 12:24:37;;;;;;;77.95;41.30;;;3.70;99.90;;;;;;5072374;28;20051;-57
2022/03/07 12:27:04;;;;;;;78.20;43.95;;;3.70;99.90;;;;;;5069492;28;20028;-57
2022/03/07 12:29:30;;;;;;;71.75;41.22;;;3.70;99.90;;;;;;5064136;28;20053;-57
2022/03/07 12:32:04;;;;;;;71.97;37.28;;;3.70;99.90;;;;;;5071270;28;20024;-57
2022/03/07 12:34:32;;;;;;;66.72;37.05;;;3.70;99.90;;;;;;5074825;28;20107;-57
2022/03/07 12:37:03;;;;;;;72.30;38.60;;;3.60;99.90;;;;;;5075049;28;20493;-57
2022/03/07 12:39:41;;;;;;;55.90;32.55;;;3.70;99.90;;;;;;5073426;28;20660;-57
2022/03/07 12:42:07;;;;;;;71.95;37.25;;;3.60;99.90;;;;;;5065345;28;20027;-57
2022/03/07 12:44:33;;;;;;;75.97;38.72;;;3.80;99.90;;;;;;5054319;28;20024;-57
2022/03/07 12:46:59;;;;;;;57.22;34.42;;;3.90;99.90;;;;;;5075185;28;20059;-57
2022/03/07 12:49:25;;;;;;;63.03;34.75;;;4.00;99.90;;;;;;5068819;28;20378;-57
2022/03/07 12:51:51;;;;;;;60.25;34.47;;;4.10;99.90;;;;;;5074242;28;20147;-57
2022/03/07 12:54:32;;;;;;;68.47;39.83;;;4.20;99.90;;;;;;5066113;28;20090;-57
2022/03/07 12:56:58;;;;;;;71.25;38.17;;;4.40;99.90;;;;;;5067344;28;20356;-58
2022/03/07 12:59:29;;;;;;;75.75;42.65;;;4.40;99.90;;;;;;5069063;28;20028;-58
2022/03/07 13:01:56;;;;;;;71.18;37.70;;;4.50;99.90;;;;;;5074528;28;20063;-57